Point Of Ayre, Isle of Man
Current Conditions -  °F | °C
As of 12:50 AM on Wednesday 26 Nov 2014 (Local Time) from EGNS Reporting Station
Broken Clouds Broken Clouds  
Wind Chill: 43°   Ceiling: 3100
Heat Index: 48°   Visibility: 6mi
Dew Point: 39°   Wind: 13mph
Humidity: 71%   Direction: 130°SE
Pressure: 30.06"   Gusts: NA
Location:  54.42°N, 4.37°W
Report Text: EGNS 260050Z 13011KT 9999 SCT023 BKN031 09/04 Q1018
Loading
Personal Weather Stations






























Interactive Weather Map New forecast layout! Learn more

10-Day Weather Forecast

Advertisements
Track Severe Weather on mobile